CEB919 RPLL-RPVE
Flight info
| Callsign | CEB919 |
|---|---|
| Flight time | 0h 55m |
| Altitude | 25000 |
| Route | VERDE W24 TAPER |
| Aircraft | A20N/M-SDE2E3FGHIRWXY/LB1 |
Departure
| Time | 2026-04-25 13:00 |
|---|---|
| Airport | Ninoy Aquino International Airport (RPLL) |
Arrival
| Time | 2026-04-25 13:55 |
|---|---|
| Airport | Godofredo P. Ramos Airport (RPVE) |
| Time | Latitude | Longitude | Altitude | Speed | Heading |
|---|---|---|---|---|---|
| 2026-04-25 12:07 | 14.50924 | 121.01408 | 81 ft | 0 kts | 331° |
| 2026-04-25 12:49 | 14.50920 | 121.01410 | 81 ft | 2 kts | 331° |
| 2026-04-25 12:50 | 14.50907 | 121.01417 | 81 ft | 2 kts | 331° |
| 2026-04-25 12:50 | 14.50893 | 121.01425 | 81 ft | 2 kts | 331° |
| 2026-04-25 12:50 | 14.50880 | 121.01432 | 81 ft | 2 kts | 331° |
| 2026-04-25 12:50 | 14.50869 | 121.01439 | 81 ft | 0 kts | 331° |
| 2026-04-25 12:51 | 14.50859 | 121.01445 | 81 ft | 2 kts | 314° |
| 2026-04-25 12:51 | 14.50850 | 121.01458 | 81 ft | 2 kts | 294° |
| 2026-04-25 12:51 | 14.50846 | 121.01472 | 81 ft | 2 kts | 273° |
| 2026-04-25 12:51 | 14.50847 | 121.01488 | 81 ft | 2 kts | 252° |
| 2026-04-25 12:52 | 14.50851 | 121.01496 | 81 ft | 1 kts | 240° |
| 2026-04-25 12:52 | 14.50853 | 121.01501 | 81 ft | 0 kts | 240° |
| 2026-04-25 12:54 | 14.50824 | 121.01449 | 81 ft | 13 kts | 240° |
| 2026-04-25 12:54 | 14.50776 | 121.01363 | 81 ft | 14 kts | 240° |
| 2026-04-25 12:54 | 14.50692 | 121.01318 | 81 ft | 14 kts | 200° |
| 2026-04-25 12:55 | 14.50621 | 121.01232 | 81 ft | 21 kts | 240° |
| 2026-04-25 12:55 | 14.50562 | 121.01127 | 81 ft | 29 kts | 240° |
| 2026-04-25 12:55 | 14.50409 | 121.00851 | 81 ft | 35 kts | 240° |
| 2026-04-25 12:55 | 14.50284 | 121.00625 | 81 ft | 35 kts | 240° |
| 2026-04-25 12:56 | 14.50165 | 121.00411 | 81 ft | 32 kts | 240° |
| 2026-04-25 12:56 | 14.50055 | 121.00214 | 81 ft | 31 kts | 239° |
| 2026-04-25 12:56 | 14.49962 | 121.00050 | 81 ft | 14 kts | 239° |
| 2026-04-25 12:56 | 14.49904 | 120.99966 | 82 ft | 14 kts | 201° |
| 2026-04-25 12:57 | 14.49874 | 120.99967 | 82 ft | 0 kts | 154° |
| 2026-04-25 12:57 | 14.49865 | 120.99972 | 82 ft | 6 kts | 153° |
| 2026-04-25 12:57 | 14.49808 | 121.00019 | 82 ft | 12 kts | 113° |
| 2026-04-25 12:57 | 14.49814 | 121.00066 | 82 ft | 0 kts | 62° |
| 2026-04-25 12:59 | 14.49849 | 121.00130 | 82 ft | 39 kts | 61° |
| 2026-04-25 12:59 | 14.50112 | 121.00597 | 82 ft | 109 kts | 60° |
| 2026-04-25 12:59 | 14.50594 | 121.01464 | 102 ft | 161 kts | 61° |
| 2026-04-25 13:00 | 14.51152 | 121.02477 | 687 ft | 159 kts | 62° |
| 2026-04-25 13:00 | 14.51332 | 121.02792 | 887 ft | 160 kts | 61° |
| 2026-04-25 13:00 | 14.52260 | 121.04456 | 1873 ft | 163 kts | 62° |
| 2026-04-25 13:00 | 14.52831 | 121.05509 | 2280 ft | 177 kts | 62° |
| 2026-04-25 13:01 | 14.53456 | 121.06667 | 2637 ft | 192 kts | 63° |
| 2026-04-25 13:01 | 14.54124 | 121.07909 | 2958 ft | 207 kts | 63° |
| 2026-04-25 13:01 | 14.54855 | 121.09264 | 3188 ft | 229 kts | 62° |
| 2026-04-25 13:01 | 14.55658 | 121.10782 | 3548 ft | 247 kts | 62° |
| 2026-04-25 13:02 | 14.56501 | 121.12381 | 3941 ft | 264 kts | 63° |
| 2026-04-25 13:02 | 14.57054 | 121.14178 | 4524 ft | 270 kts | 88° |
| 2026-04-25 13:02 | 14.56707 | 121.16071 | 5262 ft | 272 kts | 115° |
| 2026-04-25 13:02 | 14.55533 | 121.17585 | 5920 ft | 276 kts | 140° |
| 2026-04-25 13:03 | 14.53970 | 121.18733 | 6601 ft | 278 kts | 146° |
| 2026-04-25 13:03 | 14.52347 | 121.19808 | 7216 ft | 281 kts | 147° |
| 2026-04-25 13:03 | 14.50685 | 121.20884 | 7853 ft | 284 kts | 147° |
| 2026-04-25 13:03 | 14.49014 | 121.21959 | 8517 ft | 286 kts | 147° |
| 2026-04-25 13:04 | 14.47308 | 121.23056 | 9150 ft | 289 kts | 147° |
| 2026-04-25 13:04 | 14.45585 | 121.24166 | 9749 ft | 293 kts | 147° |
| 2026-04-25 13:04 | 14.43851 | 121.25285 | 10310 ft | 297 kts | 147° |
| 2026-04-25 13:04 | 14.42070 | 121.26437 | 10619 ft | 312 kts | 148° |
| 2026-04-25 13:05 | 14.40076 | 121.27436 | 10878 ft | 327 kts | 165° |
| 2026-04-25 13:05 | 14.37739 | 121.27612 | 11150 ft | 343 kts | 187° |
| 2026-04-25 13:05 | 14.35433 | 121.26842 | 11449 ft | 357 kts | 209° |
| 2026-04-25 13:05 | 14.33338 | 121.25410 | 11985 ft | 362 kts | 216° |
| 2026-04-25 13:06 | 14.31309 | 121.23854 | 12587 ft | 365 kts | 217° |
| 2026-04-25 13:06 | 14.29294 | 121.22288 | 13152 ft | 368 kts | 217° |
| 2026-04-25 13:06 | 14.27232 | 121.20689 | 13707 ft | 371 kts | 217° |
| 2026-04-25 13:06 | 14.25145 | 121.19080 | 14255 ft | 374 kts | 217° |
| 2026-04-25 13:07 | 14.23078 | 121.17490 | 14786 ft | 377 kts | 217° |
| 2026-04-25 13:07 | 14.20959 | 121.15863 | 15318 ft | 379 kts | 217° |
| 2026-04-25 13:07 | 14.18831 | 121.14232 | 15830 ft | 381 kts | 217° |
| 2026-04-25 13:07 | 14.16715 | 121.12612 | 16341 ft | 384 kts | 217° |
| 2026-04-25 13:08 | 14.14552 | 121.10957 | 16851 ft | 387 kts | 217° |
| 2026-04-25 13:08 | 14.12377 | 121.09295 | 17348 ft | 389 kts | 217° |
| 2026-04-25 13:08 | 14.10199 | 121.07633 | 17821 ft | 392 kts | 217° |
| 2026-04-25 13:08 | 14.07992 | 121.05949 | 18262 ft | 395 kts | 217° |
| 2026-04-25 13:09 | 14.05687 | 121.04383 | 18677 ft | 399 kts | 206° |
| 2026-04-25 13:09 | 14.02977 | 121.03686 | 19075 ft | 404 kts | 185° |
| 2026-04-25 13:09 | 14.00149 | 121.03670 | 19545 ft | 405 kts | 180° |
| 2026-04-25 13:09 | 13.97335 | 121.03735 | 19877 ft | 408 kts | 180° |
| 2026-04-25 13:10 | 13.94475 | 121.03775 | 19979 ft | 407 kts | 181° |
| 2026-04-25 13:10 | 13.91680 | 121.03782 | 20001 ft | 397 kts | 182° |
| 2026-04-25 13:10 | 13.88926 | 121.03765 | 20012 ft | 379 kts | 182° |
| 2026-04-25 13:10 | 13.86316 | 121.03735 | 19983 ft | 362 kts | 182° |
| 2026-04-25 13:11 | 13.83797 | 121.03700 | 19965 ft | 345 kts | 182° |
| 2026-04-25 13:11 | 13.81387 | 121.03660 | 19959 ft | 341 kts | 182° |
| 2026-04-25 13:11 | 13.78991 | 121.03618 | 19953 ft | 341 kts | 182° |
| 2026-04-25 13:11 | 13.76621 | 121.03576 | 19965 ft | 345 kts | 182° |
| 2026-04-25 13:12 | 13.74165 | 121.03529 | 20132 ft | 357 kts | 182° |
| 2026-04-25 13:12 | 13.71628 | 121.03483 | 20315 ft | 370 kts | 182° |
| 2026-04-25 13:12 | 13.68989 | 121.03434 | 20488 ft | 381 kts | 182° |
| 2026-04-25 13:12 | 13.67204 | 121.03402 | 20610 ft | 389 kts | 182° |
| 2026-04-25 13:13 | 13.63522 | 121.03336 | 20844 ft | 403 kts | 182° |
| 2026-04-25 13:13 | 13.60667 | 121.03284 | 21066 ft | 411 kts | 182° |
| 2026-04-25 13:13 | 13.57775 | 121.03233 | 21414 ft | 414 kts | 182° |
| 2026-04-25 13:13 | 13.54903 | 121.03181 | 21790 ft | 417 kts | 182° |
| 2026-04-25 13:14 | 13.51981 | 121.03389 | 22129 ft | 421 kts | 171° |
| 2026-04-25 13:14 | 13.49158 | 121.04263 | 22475 ft | 426 kts | 158° |
| 2026-04-25 13:14 | 13.46540 | 121.05740 | 22818 ft | 429 kts | 148° |
| 2026-04-25 13:14 | 13.44078 | 121.07474 | 23182 ft | 432 kts | 146° |
| 2026-04-25 13:15 | 13.41618 | 121.09256 | 23538 ft | 434 kts | 146° |
| 2026-04-25 13:15 | 13.39128 | 121.11043 | 23899 ft | 436 kts | 147° |
| 2026-04-25 13:15 | 13.36614 | 121.12824 | 24258 ft | 438 kts | 147° |
| 2026-04-25 13:15 | 13.34073 | 121.14609 | 24622 ft | 440 kts | 147° |
| 2026-04-25 13:16 | 13.31553 | 121.16370 | 24939 ft | 443 kts | 147° |
| 2026-04-25 13:16 | 13.28992 | 121.18162 | 25040 ft | 443 kts | 147° |
| 2026-04-25 13:16 | 13.26426 | 121.19958 | 25074 ft | 443 kts | 147° |
| 2026-04-25 13:16 | 13.23911 | 121.21720 | 25051 ft | 442 kts | 147° |
| 2026-04-25 13:17 | 13.21357 | 121.23509 | 25031 ft | 442 kts | 147° |
| 2026-04-25 13:17 | 13.18827 | 121.25282 | 25015 ft | 442 kts | 147° |
| 2026-04-25 13:17 | 13.16254 | 121.27086 | 24999 ft | 441 kts | 147° |
| 2026-04-25 13:17 | 13.13742 | 121.28845 | 24954 ft | 441 kts | 147° |
| 2026-04-25 13:18 | 13.11194 | 121.30631 | 24857 ft | 442 kts | 147° |
| 2026-04-25 13:18 | 13.08654 | 121.32412 | 24446 ft | 439 kts | 147° |
| 2026-04-25 13:18 | 13.06144 | 121.34171 | 23970 ft | 436 kts | 147° |
| 2026-04-25 13:18 | 13.03638 | 121.35926 | 23434 ft | 433 kts | 147° |
| 2026-04-25 13:19 | 13.01178 | 121.37648 | 22906 ft | 430 kts | 147° |
| 2026-04-25 13:19 | 12.98702 | 121.39381 | 22372 ft | 427 kts | 147° |
| 2026-04-25 13:19 | 12.96277 | 121.41077 | 21840 ft | 423 kts | 147° |
| 2026-04-25 13:19 | 12.94642 | 121.42221 | 21461 ft | 421 kts | 147° |
| 2026-04-25 13:20 | 12.91436 | 121.44463 | 20750 ft | 416 kts | 147° |
| 2026-04-25 13:20 | 12.89052 | 121.46130 | 20231 ft | 411 kts | 147° |
| 2026-04-25 13:20 | 12.86671 | 121.47794 | 19706 ft | 407 kts | 147° |
| 2026-04-25 13:20 | 12.84273 | 121.49470 | 19181 ft | 403 kts | 146° |
| 2026-04-25 13:21 | 12.81915 | 121.51118 | 18652 ft | 401 kts | 146° |
| 2026-04-25 13:21 | 12.79625 | 121.52719 | 18132 ft | 398 kts | 146° |
| 2026-04-25 13:21 | 12.77345 | 121.54311 | 17613 ft | 395 kts | 146° |
| 2026-04-25 13:21 | 12.75080 | 121.55893 | 17093 ft | 393 kts | 146° |
| 2026-04-25 13:22 | 12.72845 | 121.57453 | 16579 ft | 390 kts | 146° |
| 2026-04-25 13:22 | 12.70586 | 121.59030 | 16057 ft | 388 kts | 146° |
| 2026-04-25 13:22 | 12.68364 | 121.60580 | 15541 ft | 385 kts | 146° |
| 2026-04-25 13:23 | 12.63989 | 121.63631 | 14520 ft | 380 kts | 146° |
| 2026-04-25 13:23 | 12.61791 | 121.65163 | 14084 ft | 374 kts | 146° |
| 2026-04-25 13:23 | 12.59650 | 121.66655 | 13832 ft | 372 kts | 146° |
| 2026-04-25 13:23 | 12.57518 | 121.68141 | 13584 ft | 371 kts | 146° |
| 2026-04-25 13:24 | 12.55392 | 121.69623 | 13336 ft | 369 kts | 146° |
| 2026-04-25 13:24 | 12.53256 | 121.71112 | 13083 ft | 367 kts | 146° |
| 2026-04-25 13:24 | 12.51145 | 121.72585 | 12535 ft | 367 kts | 145° |
| 2026-04-25 13:24 | 12.49010 | 121.74075 | 11688 ft | 375 kts | 145° |
| 2026-04-25 13:25 | 12.46880 | 121.75560 | 11059 ft | 373 kts | 146° |
| 2026-04-25 13:25 | 12.44723 | 121.77061 | 10587 ft | 367 kts | 146° |
| 2026-04-25 13:25 | 12.42646 | 121.78507 | 10260 ft | 356 kts | 145° |
| 2026-04-25 13:25 | 12.40628 | 121.79910 | 10069 ft | 342 kts | 145° |
| 2026-04-25 13:26 | 12.38721 | 121.81235 | 9920 ft | 327 kts | 146° |
| 2026-04-25 13:26 | 12.36675 | 121.82214 | 9564 ft | 322 kts | 166° |
| 2026-04-25 13:26 | 12.34454 | 121.82332 | 9244 ft | 318 kts | 186° |
| 2026-04-25 13:26 | 12.32304 | 121.81897 | 8952 ft | 311 kts | 191° |
| 2026-04-25 13:27 | 12.30219 | 121.81419 | 8662 ft | 304 kts | 191° |
| 2026-04-25 13:27 | 12.28160 | 121.80942 | 8369 ft | 298 kts | 191° |
| 2026-04-25 13:27 | 12.26154 | 121.80569 | 8073 ft | 290 kts | 179° |
| 2026-04-25 13:27 | 12.24200 | 121.80907 | 7777 ft | 279 kts | 153° |
| 2026-04-25 13:28 | 12.22495 | 121.81844 | 7511 ft | 276 kts | 147° |
| 2026-04-25 13:28 | 12.21396 | 121.82484 | 7425 ft | 276 kts | 147° |
| 2026-04-25 13:28 | 12.19161 | 121.83778 | 7265 ft | 275 kts | 147° |
| 2026-04-25 13:28 | 12.17499 | 121.84740 | 7147 ft | 275 kts | 147° |
| 2026-04-25 13:29 | 12.15838 | 121.85714 | 7029 ft | 274 kts | 147° |
| 2026-04-25 13:29 | 12.14174 | 121.86689 | 6910 ft | 274 kts | 147° |
| 2026-04-25 13:29 | 12.12507 | 121.87659 | 6791 ft | 273 kts | 147° |
| 2026-04-25 13:30 | 12.09221 | 121.89562 | 6570 ft | 262 kts | 147° |
| 2026-04-25 13:30 | 12.07671 | 121.90453 | 6496 ft | 249 kts | 147° |
| 2026-04-25 13:30 | 12.06196 | 121.91303 | 6417 ft | 237 kts | 147° |
| 2026-04-25 13:31 | 12.03296 | 121.92722 | 6233 ft | 234 kts | 171° |
| 2026-04-25 13:31 | 12.01671 | 121.92462 | 6121 ft | 242 kts | 204° |
| 2026-04-25 13:31 | 12.00389 | 121.91330 | 6002 ft | 249 kts | 237° |
| 2026-04-25 13:31 | 11.99893 | 121.89666 | 5981 ft | 251 kts | 271° |
| 2026-04-25 13:32 | 12.00345 | 121.87949 | 5981 ft | 250 kts | 304° |
| 2026-04-25 13:32 | 12.01556 | 121.86755 | 5979 ft | 243 kts | 337° |
| 2026-04-25 13:32 | 12.03147 | 121.86217 | 5987 ft | 240 kts | 349° |
| 2026-04-25 13:32 | 12.04767 | 121.85788 | 5982 ft | 240 kts | 348° |
| 2026-04-25 13:33 | 12.06389 | 121.85340 | 5980 ft | 240 kts | 348° |
| 2026-04-25 13:33 | 12.08024 | 121.84868 | 5979 ft | 240 kts | 347° |
| 2026-04-25 13:33 | 12.09619 | 121.84408 | 5978 ft | 240 kts | 352° |
| 2026-04-25 13:33 | 12.10724 | 121.84320 | 5959 ft | 233 kts | 14° |
| 2026-04-25 13:34 | 12.12468 | 121.85443 | 5975 ft | 223 kts | 58° |
| 2026-04-25 13:34 | 12.13041 | 121.86892 | 5975 ft | 220 kts | 84° |
| 2026-04-25 13:34 | 12.12892 | 121.88420 | 5974 ft | 221 kts | 110° |
| 2026-04-25 13:34 | 12.12033 | 121.89730 | 5972 ft | 225 kts | 137° |
| 2026-04-25 13:35 | 12.10649 | 121.90477 | 5977 ft | 230 kts | 160° |
| 2026-04-25 13:35 | 12.09080 | 121.90937 | 5975 ft | 230 kts | 160° |
| 2026-04-25 13:35 | 12.07543 | 121.91386 | 5973 ft | 230 kts | 160° |
| 2026-04-25 13:35 | 12.05994 | 121.91845 | 5973 ft | 230 kts | 160° |
| 2026-04-25 13:36 | 12.04448 | 121.92305 | 5972 ft | 230 kts | 161° |
| 2026-04-25 13:36 | 12.02858 | 121.92491 | 5954 ft | 237 kts | 189° |
| 2026-04-25 13:36 | 12.01391 | 121.91681 | 5966 ft | 247 kts | 225° |
| 2026-04-25 13:36 | 12.00562 | 121.90152 | 5970 ft | 251 kts | 258° |
| 2026-04-25 13:37 | 12.00634 | 121.88389 | 5973 ft | 251 kts | 292° |
| 2026-04-25 13:37 | 12.01598 | 121.86942 | 5976 ft | 246 kts | 325° |
| 2026-04-25 13:37 | 12.03112 | 121.86208 | 5986 ft | 240 kts | 349° |
| 2026-04-25 13:37 | 12.04730 | 121.85783 | 5982 ft | 240 kts | 349° |
| 2026-04-25 13:38 | 12.06356 | 121.85345 | 5980 ft | 240 kts | 348° |
| 2026-04-25 13:38 | 12.07989 | 121.84882 | 5979 ft | 240 kts | 348° |
| 2026-04-25 13:38 | 12.09605 | 121.84433 | 5977 ft | 239 kts | 354° |
| 2026-04-25 13:38 | 12.11208 | 121.84580 | 5969 ft | 229 kts | 29° |
| 2026-04-25 13:39 | 12.12421 | 121.85551 | 5975 ft | 223 kts | 58° |
| 2026-04-25 13:39 | 12.12993 | 121.86994 | 5976 ft | 220 kts | 85° |
| 2026-04-25 13:39 | 12.12808 | 121.88541 | 5974 ft | 221 kts | 112° |
| 2026-04-25 13:39 | 12.11921 | 121.89797 | 5973 ft | 225 kts | 139° |
| 2026-04-25 13:40 | 12.10494 | 121.90511 | 5900 ft | 230 kts | 160° |
| 2026-04-25 13:40 | 12.08956 | 121.90962 | 5783 ft | 229 kts | 160° |
| 2026-04-25 13:40 | 12.07404 | 121.91419 | 5663 ft | 229 kts | 160° |
| 2026-04-25 13:40 | 12.05889 | 121.91869 | 5546 ft | 228 kts | 160° |
| 2026-04-25 13:41 | 12.04357 | 121.92326 | 5426 ft | 228 kts | 161° |
| 2026-04-25 13:41 | 12.02761 | 121.92461 | 5286 ft | 235 kts | 192° |
| 2026-04-25 13:41 | 12.01341 | 121.91605 | 5171 ft | 243 kts | 226° |
| 2026-04-25 13:41 | 12.00554 | 121.90073 | 5051 ft | 247 kts | 259° |
| 2026-04-25 13:42 | 12.00654 | 121.88343 | 4931 ft | 246 kts | 292° |
| 2026-04-25 13:42 | 12.01600 | 121.86942 | 4813 ft | 240 kts | 325° |
| 2026-04-25 13:42 | 12.03058 | 121.86224 | 4704 ft | 233 kts | 348° |
| 2026-04-25 13:42 | 12.04647 | 121.85799 | 4585 ft | 232 kts | 349° |
| 2026-04-25 13:43 | 12.06209 | 121.85377 | 4467 ft | 231 kts | 348° |
| 2026-04-25 13:43 | 12.07766 | 121.84936 | 4348 ft | 231 kts | 348° |
| 2026-04-25 13:43 | 12.09316 | 121.84489 | 4229 ft | 229 kts | 351° |
| 2026-04-25 13:43 | 12.10867 | 121.84464 | 4095 ft | 220 kts | 21° |
| 2026-04-25 13:44 | 12.12149 | 121.85250 | 3987 ft | 214 kts | 50° |
| 2026-04-25 13:44 | 12.12880 | 121.86533 | 3980 ft | 212 kts | 75° |
| 2026-04-25 13:44 | 12.12944 | 121.88038 | 3976 ft | 215 kts | 101° |
| 2026-04-25 13:44 | 12.12280 | 121.89417 | 3971 ft | 221 kts | 130° |
| 2026-04-25 13:45 | 12.10985 | 121.90253 | 3970 ft | 229 kts | 162° |
| 2026-04-25 13:45 | 12.09367 | 121.90241 | 3970 ft | 238 kts | 197° |
| 2026-04-25 13:45 | 12.07970 | 121.89318 | 3980 ft | 243 kts | 223° |
| 2026-04-25 13:45 | 12.06761 | 121.88107 | 3977 ft | 243 kts | 223° |
| 2026-04-25 13:46 | 12.05546 | 121.86891 | 3974 ft | 243 kts | 223° |
| 2026-04-25 13:46 | 12.04327 | 121.85688 | 3973 ft | 243 kts | 223° |
| 2026-04-25 13:46 | 12.03099 | 121.84486 | 3972 ft | 243 kts | 222° |
| 2026-04-25 13:46 | 12.01864 | 121.83285 | 3972 ft | 243 kts | 222° |
| 2026-04-25 13:47 | 12.00636 | 121.82095 | 3973 ft | 243 kts | 222° |
| 2026-04-25 13:47 | 11.99406 | 121.80905 | 3975 ft | 243 kts | 222° |
| 2026-04-25 13:47 | 11.98179 | 121.79719 | 3976 ft | 243 kts | 222° |
| 2026-04-25 13:47 | 11.96936 | 121.78517 | 3977 ft | 243 kts | 222° |
| 2026-04-25 13:48 | 11.95706 | 121.77329 | 3978 ft | 243 kts | 222° |
| 2026-04-25 13:48 | 11.94480 | 121.76146 | 3978 ft | 243 kts | 222° |
| 2026-04-25 13:48 | 11.93254 | 121.74963 | 3978 ft | 243 kts | 222° |
| 2026-04-25 13:48 | 11.91940 | 121.73878 | 3965 ft | 240 kts | 203° |
| 2026-04-25 13:49 | 11.90342 | 121.73525 | 3972 ft | 233 kts | 172° |
| 2026-04-25 13:49 | 11.88807 | 121.73972 | 3976 ft | 227 kts | 149° |
| 2026-04-25 13:49 | 11.87403 | 121.74728 | 3969 ft | 220 kts | 147° |
| 2026-04-25 13:49 | 11.86080 | 121.75452 | 3951 ft | 208 kts | 147° |
| 2026-04-25 13:50 | 11.84808 | 121.76177 | 3932 ft | 204 kts | 136° |
| 2026-04-25 13:50 | 11.84050 | 121.77290 | 3886 ft | 182 kts | 102° |
| 2026-04-25 13:50 | 11.84092 | 121.78500 | 3641 ft | 166 kts | 73° |
| 2026-04-25 13:50 | 11.84498 | 121.79559 | 3395 ft | 156 kts | 65° |
| 2026-04-25 13:51 | 11.84968 | 121.80520 | 3174 ft | 147 kts | 63° |
| 2026-04-25 13:51 | 11.85436 | 121.81435 | 2982 ft | 144 kts | 62° |
| 2026-04-25 13:51 | 11.85896 | 121.82338 | 2821 ft | 143 kts | 63° |
| 2026-04-25 13:51 | 11.86357 | 121.83251 | 2632 ft | 143 kts | 63° |
| 2026-04-25 13:52 | 11.86805 | 121.84144 | 2431 ft | 143 kts | 62° |
| 2026-04-25 13:52 | 11.87256 | 121.85045 | 2292 ft | 141 kts | 61° |
| 2026-04-25 13:52 | 11.87726 | 121.85944 | 2073 ft | 143 kts | 60° |
| 2026-04-25 13:52 | 11.88192 | 121.86826 | 1809 ft | 141 kts | 61° |
| 2026-04-25 13:53 | 11.88633 | 121.87712 | 1596 ft | 140 kts | 60° |
| 2026-04-25 13:53 | 11.89067 | 121.88609 | 1343 ft | 140 kts | 62° |
| 2026-04-25 13:53 | 11.89499 | 121.89504 | 1171 ft | 139 kts | 62° |
| 2026-04-25 13:53 | 11.89936 | 121.90403 | 1037 ft | 139 kts | 61° |
| 2026-04-25 13:54 | 11.90392 | 121.91301 | 807 ft | 138 kts | 61° |
| 2026-04-25 13:54 | 11.90842 | 121.92164 | 640 ft | 137 kts | 62° |
| 2026-04-25 13:54 | 11.91267 | 121.93044 | 451 ft | 138 kts | 63° |
| 2026-04-25 13:54 | 11.91703 | 121.93900 | 289 ft | 136 kts | 62° |
| 2026-04-25 13:55 | 11.92142 | 121.94765 | 90 ft | 136 kts | 63° |
| 2026-04-25 13:55 | 11.92549 | 121.95584 | 33 ft | 103 kts | 65° |
| 2026-04-25 13:55 | 11.92744 | 121.95957 | 50 ft | 19 kts | 65° |
| 2026-04-25 13:55 | 11.92798 | 121.96071 | 55 ft | 16 kts | 65° |
| 2026-04-25 13:56 | 11.92807 | 121.96120 | 56 ft | 4 kts | 136° |
| 2026-04-25 13:56 | 11.92777 | 121.96132 | 56 ft | 0 kts | 161° |
| 2026-04-25 13:56 | 11.92762 | 121.96137 | 56 ft | 3 kts | 161° |
| 2026-04-25 13:56 | 11.92702 | 121.96163 | 56 ft | 9 kts | 152° |
| 2026-04-25 13:57 | 11.92638 | 121.96191 | 55 ft | 10 kts | 168° |
| 2026-04-25 13:57 | 11.92587 | 121.96207 | 55 ft | 11 kts | 153° |
| 2026-04-25 13:57 | 11.92508 | 121.96247 | 54 ft | 8 kts | 153° |
| 2026-04-25 13:57 | 11.92508 | 121.96281 | 55 ft | 3 kts | 65° |
| 2026-04-25 13:58 | 11.92519 | 121.96307 | 55 ft | 3 kts | 64° |
| 2026-04-25 13:58 | 11.92520 | 121.96308 | 55 ft | 0 kts | 64° |